sensor_id;sensor_type;location;lat;lon;timestamp;P1;durP1;ratioP1;P2;durP2;ratioP2
59824;SDS011;45703;50.898;6.054;2022-12-10T00:01:12;36.63;;;17.30;;
59824;SDS011;45703;50.898;6.054;2022-12-10T00:03:39;35.42;;;16.85;;
59824;SDS011;45703;50.898;6.054;2022-12-10T00:06:05;34.08;;;15.25;;
59824;SDS011;45703;50.898;6.054;2022-12-10T00:08:33;35.88;;;15.65;;
59824;SDS011;45703;50.898;6.054;2022-12-10T00:10:59;36.58;;;16.25;;
59824;SDS011;45703;50.898;6.054;2022-12-10T00:13:28;33.83;;;16.50;;
59824;SDS011;45703;50.898;6.054;2022-12-10T00:15:53;34.65;;;16.45;;
59824;SDS011;45703;50.898;6.054;2022-12-10T00:18:18;31.92;;;15.68;;
59824;SDS011;45703;50.898;6.054;2022-12-10T00:20:44;35.58;;;16.95;;
59824;SDS011;45703;50.898;6.054;2022-12-10T00:23:09;32.47;;;15.52;;
59824;SDS011;45703;50.898;6.054;2022-12-10T00:25:34;31.63;;;15.00;;
59824;SDS011;45703;50.898;6.054;2022-12-10T00:28:00;38.38;;;17.40;;
59824;SDS011;45703;50.898;6.054;2022-12-10T00:30:25;33.85;;;16.95;;
59824;SDS011;45703;50.898;6.054;2022-12-10T00:32:51;38.35;;;17.52;;
59824;SDS011;45703;50.898;6.054;2022-12-10T00:35:16;36.50;;;16.33;;
59824;SDS011;45703;50.898;6.054;2022-12-10T00:37:41;36.47;;;16.65;;
59824;SDS011;45703;50.898;6.054;2022-12-10T00:40:07;36.72;;;18.13;;
59824;SDS011;45703;50.898;6.054;2022-12-10T00:42:34;33.78;;;16.00;;
59824;SDS011;45703;50.898;6.054;2022-12-10T00:44:59;35.38;;;16.73;;
59824;SDS011;45703;50.898;6.054;2022-12-10T00:47:25;36.25;;;16.63;;
59824;SDS011;45703;50.898;6.054;2022-12-10T00:49:50;38.50;;;17.45;;
59824;SDS011;45703;50.898;6.054;2022-12-10T00:52:15;41.13;;;18.00;;
59824;SDS011;45703;50.898;6.054;2022-12-10T00:54:41;40.42;;;19.23;;
59824;SDS011;45703;50.898;6.054;2022-12-10T00:57:06;40.80;;;17.98;;
59824;SDS011;45703;50.898;6.054;2022-12-10T00:59:32;39.42;;;17.35;;
59824;SDS011;45703;50.898;6.054;2022-12-10T01:01:57;38.33;;;17.95;;
59824;SDS011;45703;50.898;6.054;2022-12-10T01:04:23;38.45;;;17.13;;
59824;SDS011;45703;50.898;6.054;2022-12-10T01:06:49;33.88;;;16.65;;
59824;SDS011;45703;50.898;6.054;2022-12-10T01:09:17;42.55;;;18.60;;
59824;SDS011;45703;50.898;6.054;2022-12-10T01:11:45;37.88;;;17.60;;
59824;SDS011;45703;50.898;6.054;2022-12-10T01:14:13;39.25;;;18.02;;
59824;SDS011;45703;50.898;6.054;2022-12-10T01:16:42;39.75;;;18.40;;
59824;SDS011;45703;50.898;6.054;2022-12-10T01:19:08;39.72;;;18.50;;
59824;SDS011;45703;50.898;6.054;2022-12-10T01:21:35;40.40;;;17.45;;
59824;SDS011;45703;50.898;6.054;2022-12-10T01:24:03;39.67;;;17.35;;
59824;SDS011;45703;50.898;6.054;2022-12-10T01:26:30;40.35;;;18.20;;
59824;SDS011;45703;50.898;6.054;2022-12-10T01:28:58;35.00;;;17.27;;
59824;SDS011;45703;50.898;6.054;2022-12-10T01:33:51;39.17;;;17.70;;
59824;SDS011;45703;50.898;6.054;2022-12-10T01:36:19;39.63;;;16.40;;
59824;SDS011;45703;50.898;6.054;2022-12-10T01:38:47;41.35;;;17.70;;
59824;SDS011;45703;50.898;6.054;2022-12-10T01:41:23;37.25;;;17.75;;
59824;SDS011;45703;50.898;6.054;2022-12-10T01:46:26;35.88;;;17.00;;
59824;SDS011;45703;50.898;6.054;2022-12-10T01:48:56;36.42;;;16.58;;
59824;SDS011;45703;50.898;6.054;2022-12-10T01:51:24;38.40;;;15.80;;
59824;SDS011;45703;50.898;6.054;2022-12-10T01:53:50;34.20;;;15.48;;
59824;SDS011;45703;50.898;6.054;2022-12-10T01:56:17;34.13;;;15.00;;
59824;SDS011;45703;50.898;6.054;2022-12-10T01:58:44;37.20;;;16.95;;
59824;SDS011;45703;50.898;6.054;2022-12-10T02:14:58;36.85;;;15.85;;
59824;SDS011;45703;50.898;6.054;2022-12-10T02:17:39;33.05;;;14.77;;
59824;SDS011;45703;50.898;6.054;2022-12-10T02:23:02;37.55;;;16.63;;
59824;SDS011;45703;50.898;6.054;2022-12-10T02:28:25;36.75;;;16.95;;
59824;SDS011;45703;50.898;6.054;2022-12-10T02:31:15;36.80;;;16.98;;
59824;SDS011;45703;50.898;6.054;2022-12-10T02:33:47;40.05;;;16.70;;
59824;SDS011;45703;50.898;6.054;2022-12-10T02:36:16;37.80;;;17.15;;
59824;SDS011;45703;50.898;6.054;2022-12-10T02:38:45;36.35;;;16.55;;
59824;SDS011;45703;50.898;6.054;2022-12-10T02:41:16;36.20;;;15.13;;
59824;SDS011;45703;50.898;6.054;2022-12-10T02:43:47;39.70;;;19.17;;
59824;SDS011;45703;50.898;6.054;2022-12-10T02:46:17;41.13;;;18.17;;
59824;SDS011;45703;50.898;6.054;2022-12-10T02:48:43;40.53;;;18.50;;
59824;SDS011;45703;50.898;6.054;2022-12-10T02:51:11;39.70;;;17.63;;
59824;SDS011;45703;50.898;6.054;2022-12-10T02:53:43;40.75;;;18.13;;
59824;SDS011;45703;50.898;6.054;2022-12-10T03:01:12;40.47;;;17.23;;
59824;SDS011;45703;50.898;6.054;2022-12-10T03:04:00;38.85;;;17.45;;
59824;SDS011;45703;50.898;6.054;2022-12-10T03:06:37;42.60;;;16.80;;
59824;SDS011;45703;50.898;6.054;2022-12-10T03:09:07;37.03;;;16.20;;
59824;SDS011;45703;50.898;6.054;2022-12-10T03:11:38;41.13;;;18.38;;
59824;SDS011;45703;50.898;6.054;2022-12-10T03:16:57;38.25;;;16.27;;
59824;SDS011;45703;50.898;6.054;2022-12-10T03:19:29;38.67;;;16.20;;
59824;SDS011;45703;50.898;6.054;2022-12-10T03:22:00;39.25;;;17.25;;
59824;SDS011;45703;50.898;6.054;2022-12-10T03:24:28;37.95;;;16.33;;
59824;SDS011;45703;50.898;6.054;2022-12-10T03:26:54;39.72;;;16.02;;
59824;SDS011;45703;50.898;6.054;2022-12-10T03:29:24;38.65;;;17.42;;
59824;SDS011;45703;50.898;6.054;2022-12-10T03:31:59;41.03;;;16.92;;
59824;SDS011;45703;50.898;6.054;2022-12-10T03:34:25;36.72;;;15.85;;
59824;SDS011;45703;50.898;6.054;2022-12-10T03:36:51;38.63;;;16.27;;
59824;SDS011;45703;50.898;6.054;2022-12-10T03:39:16;35.95;;;16.30;;
59824;SDS011;45703;50.898;6.054;2022-12-10T03:41:42;34.90;;;16.25;;
59824;SDS011;45703;50.898;6.054;2022-12-10T03:44:07;37.50;;;16.13;;
59824;SDS011;45703;50.898;6.054;2022-12-10T03:46:33;38.55;;;15.55;;
59824;SDS011;45703;50.898;6.054;2022-12-10T03:48:59;35.38;;;15.85;;
59824;SDS011;45703;50.898;6.054;2022-12-10T03:51:25;36.38;;;15.35;;
59824;SDS011;45703;50.898;6.054;2022-12-10T03:53:51;34.75;;;14.40;;
59824;SDS011;45703;50.898;6.054;2022-12-10T03:56:17;37.45;;;16.45;;
59824;SDS011;45703;50.898;6.054;2022-12-10T03:58:43;35.85;;;15.00;;
59824;SDS011;45703;50.898;6.054;2022-12-10T04:01:08;33.97;;;15.02;;
59824;SDS011;45703;50.898;6.054;2022-12-10T04:03:35;36.60;;;15.95;;
59824;SDS011;45703;50.898;6.054;2022-12-10T04:06:06;40.33;;;16.95;;
59824;SDS011;45703;50.898;6.054;2022-12-10T04:08:33;41.25;;;15.48;;
59824;SDS011;45703;50.898;6.054;2022-12-10T04:11:05;32.47;;;14.32;;
59824;SDS011;45703;50.898;6.054;2022-12-10T04:13:33;36.97;;;15.65;;
59824;SDS011;45703;50.898;6.054;2022-12-10T04:16:17;35.67;;;15.10;;
59824;SDS011;45703;50.898;6.054;2022-12-10T04:18:56;37.35;;;15.90;;
59824;SDS011;45703;50.898;6.054;2022-12-10T04:21:24;35.33;;;15.45;;
59824;SDS011;45703;50.898;6.054;2022-12-10T04:24:09;34.58;;;14.23;;
59824;SDS011;45703;50.898;6.054;2022-12-10T04:26:54;35.85;;;15.10;;
59824;SDS011;45703;50.898;6.054;2022-12-10T04:29:22;36.50;;;15.50;;
59824;SDS011;45703;50.898;6.054;2022-12-10T04:31:49;34.63;;;15.70;;
59824;SDS011;45703;50.898;6.054;2022-12-10T04:34:14;36.88;;;14.85;;
59824;SDS011;45703;50.898;6.054;2022-12-10T04:36:40;38.47;;;16.73;;
59824;SDS011;45703;50.898;6.054;2022-12-10T04:39:05;34.83;;;15.65;;
59824;SDS011;45703;50.898;6.054;2022-12-10T04:41:31;33.63;;;15.38;;
59824;SDS011;45703;50.898;6.054;2022-12-10T04:43:57;36.20;;;16.13;;
59824;SDS011;45703;50.898;6.054;2022-12-10T04:46:22;37.40;;;15.80;;
59824;SDS011;45703;50.898;6.054;2022-12-10T04:48:47;43.60;;;16.48;;
59824;SDS011;45703;50.898;6.054;2022-12-10T04:51:13;37.50;;;16.30;;
59824;SDS011;45703;50.898;6.054;2022-12-10T04:53:38;33.55;;;15.18;;
59824;SDS011;45703;50.898;6.054;2022-12-10T04:56:04;37.78;;;16.20;;
59824;SDS011;45703;50.898;6.054;2022-12-10T04:58:31;38.55;;;16.67;;
59824;SDS011;45703;50.898;6.054;2022-12-10T05:01:01;38.92;;;16.65;;
59824;SDS011;45703;50.898;6.054;2022-12-10T05:03:29;40.45;;;15.85;;
59824;SDS011;45703;50.898;6.054;2022-12-10T05:05:55;34.78;;;15.50;;
59824;SDS011;45703;50.898;6.054;2022-12-10T05:08:25;38.17;;;16.77;;
59824;SDS011;45703;50.898;6.054;2022-12-10T05:10:50;33.40;;;15.48;;
59824;SDS011;45703;50.898;6.054;2022-12-10T05:13:15;38.10;;;16.52;;
59824;SDS011;45703;50.898;6.054;2022-12-10T05:15:41;36.65;;;16.65;;
59824;SDS011;45703;50.898;6.054;2022-12-10T05:18:06;38.55;;;15.65;;
59824;SDS011;45703;50.898;6.054;2022-12-10T05:20:31;40.15;;;15.75;;
59824;SDS011;45703;50.898;6.054;2022-12-10T05:22:57;42.70;;;16.45;;
59824;SDS011;45703;50.898;6.054;2022-12-10T05:25:41;39.72;;;15.20;;
59824;SDS011;45703;50.898;6.054;2022-12-10T05:28:18;41.97;;;16.98;;
59824;SDS011;45703;50.898;6.054;2022-12-10T05:30:44;37.78;;;16.00;;
59824;SDS011;45703;50.898;6.054;2022-12-10T05:33:10;42.42;;;16.67;;
59824;SDS011;45703;50.898;6.054;2022-12-10T05:35:35;40.15;;;16.38;;
59824;SDS011;45703;50.898;6.054;2022-12-10T05:38:00;38.55;;;16.08;;
59824;SDS011;45703;50.898;6.054;2022-12-10T05:40:26;40.85;;;16.42;;
59824;SDS011;45703;50.898;6.054;2022-12-10T05:42:51;35.63;;;15.27;;
59824;SDS011;45703;50.898;6.054;2022-12-10T05:45:16;39.53;;;16.08;;
59824;SDS011;45703;50.898;6.054;2022-12-10T05:47:42;35.35;;;15.50;;
59824;SDS011;45703;50.898;6.054;2022-12-10T05:50:07;37.03;;;17.10;;
59824;SDS011;45703;50.898;6.054;2022-12-10T05:52:33;36.63;;;16.27;;
59824;SDS011;45703;50.898;6.054;2022-12-10T05:54:58;36.38;;;16.90;;
59824;SDS011;45703;50.898;6.054;2022-12-10T05:57:23;33.83;;;15.25;;
59824;SDS011;45703;50.898;6.054;2022-12-10T05:59:49;32.72;;;14.32;;
59824;SDS011;45703;50.898;6.054;2022-12-10T06:02:14;36.53;;;15.18;;
59824;SDS011;45703;50.898;6.054;2022-12-10T06:04:39;30.50;;;14.25;;
59824;SDS011;45703;50.898;6.054;2022-12-10T06:07:05;30.35;;;13.05;;
59824;SDS011;45703;50.898;6.054;2022-12-10T06:09:30;31.52;;;14.32;;
59824;SDS011;45703;50.898;6.054;2022-12-10T06:11:55;35.65;;;14.50;;
59824;SDS011;45703;50.898;6.054;2022-12-10T06:14:21;30.77;;;14.55;;
59824;SDS011;45703;50.898;6.054;2022-12-10T06:16:46;31.45;;;14.20;;
59824;SDS011;45703;50.898;6.054;2022-12-10T06:19:11;30.23;;;14.52;;
59824;SDS011;45703;50.898;6.054;2022-12-10T06:21:37;34.10;;;14.85;;
59824;SDS011;45703;50.898;6.054;2022-12-10T06:24:02;32.53;;;14.98;;
59824;SDS011;45703;50.898;6.054;2022-12-10T06:26:28;31.75;;;14.05;;
59824;SDS011;45703;50.898;6.054;2022-12-10T06:28:53;32.00;;;13.77;;
59824;SDS011;45703;50.898;6.054;2022-12-10T06:31:19;32.38;;;14.07;;
59824;SDS011;45703;50.898;6.054;2022-12-10T06:33:46;28.67;;;13.68;;
59824;SDS011;45703;50.898;6.054;2022-12-10T06:36:12;28.00;;;12.60;;
59824;SDS011;45703;50.898;6.054;2022-12-10T06:38:40;28.95;;;14.48;;
59824;SDS011;45703;50.898;6.054;2022-12-10T06:41:06;28.65;;;13.88;;
59824;SDS011;45703;50.898;6.054;2022-12-10T06:43:33;29.55;;;13.52;;
59824;SDS011;45703;50.898;6.054;2022-12-10T06:45:58;33.13;;;14.80;;
59824;SDS011;45703;50.898;6.054;2022-12-10T06:48:28;28.33;;;14.38;;
59824;SDS011;45703;50.898;6.054;2022-12-10T06:50:55;28.10;;;13.75;;
59824;SDS011;45703;50.898;6.054;2022-12-10T06:53:20;27.58;;;12.68;;
59824;SDS011;45703;50.898;6.054;2022-12-10T06:55:45;29.83;;;13.70;;
59824;SDS011;45703;50.898;6.054;2022-12-10T06:58:11;28.05;;;14.13;;
59824;SDS011;45703;50.898;6.054;2022-12-10T07:00:36;28.83;;;13.48;;
59824;SDS011;45703;50.898;6.054;2022-12-10T07:03:01;27.10;;;13.18;;
59824;SDS011;45703;50.898;6.054;2022-12-10T07:05:27;28.25;;;13.65;;
59824;SDS011;45703;50.898;6.054;2022-12-10T07:07:52;27.85;;;14.05;;
59824;SDS011;45703;50.898;6.054;2022-12-10T07:10:18;29.52;;;14.85;;
59824;SDS011;45703;50.898;6.054;2022-12-10T07:12:43;28.60;;;14.77;;
59824;SDS011;45703;50.898;6.054;2022-12-10T07:15:08;30.90;;;13.65;;
59824;SDS011;45703;50.898;6.054;2022-12-10T07:17:34;29.70;;;15.23;;
59824;SDS011;45703;50.898;6.054;2022-12-10T07:19:59;30.75;;;14.38;;
59824;SDS011;45703;50.898;6.054;2022-12-10T07:22:25;30.77;;;14.25;;
59824;SDS011;45703;50.898;6.054;2022-12-10T07:24:50;31.83;;;14.82;;
59824;SDS011;45703;50.898;6.054;2022-12-10T07:27:16;27.13;;;12.50;;
59824;SDS011;45703;50.898;6.054;2022-12-10T07:29:41;29.98;;;13.60;;
59824;SDS011;45703;50.898;6.054;2022-12-10T07:32:06;30.20;;;12.85;;
59824;SDS011;45703;50.898;6.054;2022-12-10T07:34:32;29.35;;;13.70;;
59824;SDS011;45703;50.898;6.054;2022-12-10T07:36:57;28.60;;;14.05;;
59824;SDS011;45703;50.898;6.054;2022-12-10T07:39:23;29.92;;;14.52;;
59824;SDS011;45703;50.898;6.054;2022-12-10T07:41:49;26.67;;;12.98;;
59824;SDS011;45703;50.898;6.054;2022-12-10T07:44:17;28.52;;;14.05;;
59824;SDS011;45703;50.898;6.054;2022-12-10T07:46:44;26.58;;;12.25;;
59824;SDS011;45703;50.898;6.054;2022-12-10T07:49:10;25.70;;;13.07;;
59824;SDS011;45703;50.898;6.054;2022-12-10T07:51:35;26.60;;;12.55;;
59824;SDS011;45703;50.898;6.054;2022-12-10T07:54:00;28.30;;;13.25;;
59824;SDS011;45703;50.898;6.054;2022-12-10T07:56:26;26.30;;;13.75;;
59824;SDS011;45703;50.898;6.054;2022-12-10T07:58:51;31.33;;;13.95;;
59824;SDS011;45703;50.898;6.054;2022-12-10T08:01:20;29.38;;;13.55;;
59824;SDS011;45703;50.898;6.054;2022-12-10T08:03:49;27.08;;;12.95;;
59824;SDS011;45703;50.898;6.054;2022-12-10T08:06:16;28.92;;;13.32;;
59824;SDS011;45703;50.898;6.054;2022-12-10T08:08:44;28.88;;;13.88;;
59824;SDS011;45703;50.898;6.054;2022-12-10T08:11:11;31.60;;;13.30;;
59824;SDS011;45703;50.898;6.054;2022-12-10T08:13:37;30.35;;;14.23;;
59824;SDS011;45703;50.898;6.054;2022-12-10T08:16:07;31.52;;;14.05;;
59824;SDS011;45703;50.898;6.054;2022-12-10T08:18:38;32.75;;;13.23;;
59824;SDS011;45703;50.898;6.054;2022-12-10T08:21:09;32.13;;;14.82;;
59824;SDS011;45703;50.898;6.054;2022-12-10T08:23:45;29.63;;;12.70;;
59824;SDS011;45703;50.898;6.054;2022-12-10T08:26:11;32.00;;;15.00;;
59824;SDS011;45703;50.898;6.054;2022-12-10T08:28:41;31.27;;;14.15;;
59824;SDS011;45703;50.898;6.054;2022-12-10T08:31:07;32.47;;;14.20;;
59824;SDS011;45703;50.898;6.054;2022-12-10T08:33:35;32.20;;;14.77;;
59824;SDS011;45703;50.898;6.054;2022-12-10T08:36:01;28.92;;;12.98;;
59824;SDS011;45703;50.898;6.054;2022-12-10T08:38:29;28.88;;;12.88;;
59824;SDS011;45703;50.898;6.054;2022-12-10T08:40:55;29.35;;;12.93;;
59824;SDS011;45703;50.898;6.054;2022-12-10T08:43:20;28.45;;;14.05;;
59824;SDS011;45703;50.898;6.054;2022-12-10T08:45:46;33.40;;;14.00;;
59824;SDS011;45703;50.898;6.054;2022-12-10T08:48:11;32.33;;;15.05;;
59824;SDS011;45703;50.898;6.054;2022-12-10T08:50:37;35.90;;;15.40;;
59824;SDS011;45703;50.898;6.054;2022-12-10T08:53:03;33.33;;;13.98;;
59824;SDS011;45703;50.898;6.054;2022-12-10T08:55:28;32.58;;;14.23;;
59824;SDS011;45703;50.898;6.054;2022-12-10T08:57:53;32.45;;;14.25;;
59824;SDS011;45703;50.898;6.054;2022-12-10T09:00:19;33.63;;;15.10;;
59824;SDS011;45703;50.898;6.054;2022-12-10T09:02:45;32.22;;;13.85;;
59824;SDS011;45703;50.898;6.054;2022-12-10T09:05:11;31.40;;;13.07;;
59824;SDS011;45703;50.898;6.054;2022-12-10T09:07:37;31.13;;;13.90;;
59824;SDS011;45703;50.898;6.054;2022-12-10T09:10:03;33.05;;;15.38;;
59824;SDS011;45703;50.898;6.054;2022-12-10T09:12:28;35.63;;;14.75;;
59824;SDS011;45703;50.898;6.054;2022-12-10T09:14:54;32.20;;;13.98;;
59824;SDS011;45703;50.898;6.054;2022-12-10T09:17:19;35.75;;;14.80;;
59824;SDS011;45703;50.898;6.054;2022-12-10T09:19:45;31.80;;;14.88;;
59824;SDS011;45703;50.898;6.054;2022-12-10T09:22:10;29.42;;;14.07;;
59824;SDS011;45703;50.898;6.054;2022-12-10T09:24:35;33.55;;;14.65;;
59824;SDS011;45703;50.898;6.054;2022-12-10T09:27:01;30.95;;;14.30;;
59824;SDS011;45703;50.898;6.054;2022-12-10T09:29:27;32.80;;;14.57;;
59824;SDS011;45703;50.898;6.054;2022-12-10T09:31:53;31.55;;;13.27;;
59824;SDS011;45703;50.898;6.054;2022-12-10T09:34:18;34.92;;;14.55;;
59824;SDS011;45703;50.898;6.054;2022-12-10T09:36:44;31.95;;;13.65;;
59824;SDS011;45703;50.898;6.054;2022-12-10T09:39:10;34.13;;;14.52;;
59824;SDS011;45703;50.898;6.054;2022-12-10T09:46:55;31.92;;;14.93;;
59824;SDS011;45703;50.898;6.054;2022-12-10T09:49:34;36.17;;;15.85;;
59824;SDS011;45703;50.898;6.054;2022-12-10T09:52:19;34.05;;;14.85;;
59824;SDS011;45703;50.898;6.054;2022-12-10T09:54:55;36.05;;;15.50;;
59824;SDS011;45703;50.898;6.054;2022-12-10T09:57:31;34.30;;;15.57;;
59824;SDS011;45703;50.898;6.054;2022-12-10T10:02:55;43.05;;;16.92;;
59824;SDS011;45703;50.898;6.054;2022-12-10T10:05:33;41.17;;;17.20;;
59824;SDS011;45703;50.898;6.054;2022-12-10T10:08:04;33.53;;;15.57;;
59824;SDS011;45703;50.898;6.054;2022-12-10T10:10:37;36.88;;;17.00;;
59824;SDS011;45703;50.898;6.054;2022-12-10T10:15:34;39.47;;;16.35;;
59824;SDS011;45703;50.898;6.054;2022-12-10T10:18:03;37.25;;;15.02;;
59824;SDS011;45703;50.898;6.054;2022-12-10T10:20:36;34.22;;;14.40;;
59824;SDS011;45703;50.898;6.054;2022-12-10T10:23:01;35.67;;;16.10;;
59824;SDS011;45703;50.898;6.054;2022-12-10T10:25:27;39.13;;;16.65;;
59824;SDS011;45703;50.898;6.054;2022-12-10T10:27:54;37.38;;;17.02;;
59824;SDS011;45703;50.898;6.054;2022-12-10T10:30:21;37.58;;;15.10;;
59824;SDS011;45703;50.898;6.054;2022-12-10T10:32:52;37.88;;;16.88;;
59824;SDS011;45703;50.898;6.054;2022-12-10T10:36:04;39.97;;;16.63;;
59824;SDS011;45703;50.898;6.054;2022-12-10T10:38:21;33.88;;;15.52;;
59824;SDS011;45703;50.898;6.054;2022-12-10T10:40:51;31.80;;;14.95;;
59824;SDS011;45703;50.898;6.054;2022-12-10T10:43:25;36.78;;;15.55;;
59824;SDS011;45703;50.898;6.054;2022-12-10T10:48:29;38.53;;;15.48;;
59824;SDS011;45703;50.898;6.054;2022-12-10T10:51:04;36.80;;;16.80;;
59824;SDS011;45703;50.898;6.054;2022-12-10T11:01:43;37.67;;;16.35;;
59824;SDS011;45703;50.898;6.054;2022-12-10T11:04:11;41.35;;;18.05;;
59824;SDS011;45703;50.898;6.054;2022-12-10T11:06:42;34.47;;;16.08;;
59824;SDS011;45703;50.898;6.054;2022-12-10T11:09:17;31.58;;;14.68;;
59824;SDS011;45703;50.898;6.054;2022-12-10T11:11:50;39.00;;;16.65;;
59824;SDS011;45703;50.898;6.054;2022-12-10T11:14:40;38.92;;;16.98;;
59824;SDS011;45703;50.898;6.054;2022-12-10T11:19:35;33.75;;;14.88;;
59824;SDS011;45703;50.898;6.054;2022-12-10T11:22:17;35.00;;;14.90;;
59824;SDS011;45703;50.898;6.054;2022-12-10T11:24:46;37.13;;;15.75;;
59824;SDS011;45703;50.898;6.054;2022-12-10T11:27:25;35.92;;;15.40;;
59824;SDS011;45703;50.898;6.054;2022-12-10T11:30:23;36.20;;;16.48;;
59824;SDS011;45703;50.898;6.054;2022-12-10T11:36:08;35.17;;;14.95;;
59824;SDS011;45703;50.898;6.054;2022-12-10T11:38:57;34.55;;;16.63;;
59824;SDS011;45703;50.898;6.054;2022-12-10T11:50:26;38.35;;;17.45;;
59824;SDS011;45703;50.898;6.054;2022-12-10T11:55:46;40.53;;;15.98;;
59824;SDS011;45703;50.898;6.054;2022-12-10T12:12:00;35.58;;;16.00;;
59824;SDS011;45703;50.898;6.054;2022-12-10T12:14:39;33.15;;;13.93;;
59824;SDS011;45703;50.898;6.054;2022-12-10T12:17:19;33.92;;;14.57;;
59824;SDS011;45703;50.898;6.054;2022-12-10T12:19:50;30.73;;;14.40;;
59824;SDS011;45703;50.898;6.054;2022-12-10T12:24:52;29.48;;;13.32;;
59824;SDS011;45703;50.898;6.054;2022-12-10T12:27:33;30.75;;;13.43;;
59824;SDS011;45703;50.898;6.054;2022-12-10T12:30:21;33.28;;;13.85;;
59824;SDS011;45703;50.898;6.054;2022-12-10T12:40:53;33.10;;;14.10;;
59824;SDS011;45703;50.898;6.054;2022-12-10T12:43:33;30.45;;;14.02;;
59824;SDS011;45703;50.898;6.054;2022-12-10T12:46:29;33.83;;;14.10;;
59824;SDS011;45703;50.898;6.054;2022-12-10T12:49:02;30.70;;;13.18;;
59824;SDS011;45703;50.898;6.054;2022-12-10T12:52:35;29.60;;;13.45;;
59824;SDS011;45703;50.898;6.054;2022-12-10T12:54:43;31.83;;;14.50;;
59824;SDS011;45703;50.898;6.054;2022-12-10T12:57:21;33.05;;;14.65;;
59824;SDS011;45703;50.898;6.054;2022-12-10T13:00:03;33.30;;;14.15;;
59824;SDS011;45703;50.898;6.054;2022-12-10T13:05:27;32.35;;;13.05;;
59824;SDS011;45703;50.898;6.054;2022-12-10T13:08:22;35.08;;;13.43;;
59824;SDS011;45703;50.898;6.054;2022-12-10T13:13:38;33.72;;;14.32;;
59824;SDS011;45703;50.898;6.054;2022-12-10T13:27:04;34.65;;;15.00;;
59824;SDS011;45703;50.898;6.054;2022-12-10T13:32:15;33.97;;;14.10;;
59824;SDS011;45703;50.898;6.054;2022-12-10T13:34:42;34.42;;;15.68;;
59824;SDS011;45703;50.898;6.054;2022-12-10T13:39:52;36.45;;;16.58;;
59824;SDS011;45703;50.898;6.054;2022-12-10T13:42:26;36.08;;;15.90;;
59824;SDS011;45703;50.898;6.054;2022-12-10T13:47:46;30.58;;;14.32;;
59824;SDS011;45703;50.898;6.054;2022-12-10T13:52:56;29.92;;;13.65;;
59824;SDS011;45703;50.898;6.054;2022-12-10T13:55:51;35.08;;;15.00;;
59824;SDS011;45703;50.898;6.054;2022-12-10T14:01:29;36.35;;;15.75;;
59824;SDS011;45703;50.898;6.054;2022-12-10T14:06:53;35.72;;;15.07;;
59824;SDS011;45703;50.898;6.054;2022-12-10T14:11:56;29.27;;;14.60;;
59824;SDS011;45703;50.898;6.054;2022-12-10T14:14:47;31.95;;;15.32;;
59824;SDS011;45703;50.898;6.054;2022-12-10T14:17:16;38.80;;;15.35;;
59824;SDS011;45703;50.898;6.054;2022-12-10T14:19:45;33.92;;;16.13;;
59824;SDS011;45703;50.898;6.054;2022-12-10T14:22:19;38.88;;;16.77;;
59824;SDS011;45703;50.898;6.054;2022-12-10T14:24:49;36.17;;;14.98;;
59824;SDS011;45703;50.898;6.054;2022-12-10T14:29:44;37.17;;;17.10;;
59824;SDS011;45703;50.898;6.054;2022-12-10T14:32:15;35.55;;;16.60;;
59824;SDS011;45703;50.898;6.054;2022-12-10T14:34:46;36.92;;;16.25;;
59824;SDS011;45703;50.898;6.054;2022-12-10T14:37:19;37.97;;;15.35;;
59824;SDS011;45703;50.898;6.054;2022-12-10T14:39:51;34.83;;;15.95;;
59824;SDS011;45703;50.898;6.054;2022-12-10T14:42:17;34.88;;;15.38;;
59824;SDS011;45703;50.898;6.054;2022-12-10T14:44:43;36.58;;;15.60;;
59824;SDS011;45703;50.898;6.054;2022-12-10T14:47:18;32.85;;;15.68;;
59824;SDS011;45703;50.898;6.054;2022-12-10T14:49:45;31.55;;;14.55;;
59824;SDS011;45703;50.898;6.054;2022-12-10T14:52:16;38.25;;;17.15;;
59824;SDS011;45703;50.898;6.054;2022-12-10T14:54:46;38.92;;;16.30;;
59824;SDS011;45703;50.898;6.054;2022-12-10T15:02:38;34.67;;;16.00;;
59824;SDS011;45703;50.898;6.054;2022-12-10T15:05:17;37.15;;;16.13;;
59824;SDS011;45703;50.898;6.054;2022-12-10T15:07:48;40.58;;;17.77;;
59824;SDS011;45703;50.898;6.054;2022-12-10T15:10:28;35.67;;;15.93;;
59824;SDS011;45703;50.898;6.054;2022-12-10T15:12:59;39.28;;;17.17;;
59824;SDS011;45703;50.898;6.054;2022-12-10T15:15:35;35.65;;;16.30;;
59824;SDS011;45703;50.898;6.054;2022-12-10T15:18:08;37.03;;;16.08;;
59824;SDS011;45703;50.898;6.054;2022-12-10T15:20:45;32.28;;;14.95;;
59824;SDS011;45703;50.898;6.054;2022-12-10T15:28:28;34.72;;;14.88;;
59824;SDS011;45703;50.898;6.054;2022-12-10T15:31:42;32.60;;;14.80;;
59824;SDS011;45703;50.898;6.054;2022-12-10T15:36:34;35.95;;;16.83;;
59824;SDS011;45703;50.898;6.054;2022-12-10T15:41:52;40.05;;;18.05;;
59824;SDS011;45703;50.898;6.054;2022-12-10T15:47:20;34.13;;;15.18;;
59824;SDS011;45703;50.898;6.054;2022-12-10T15:49:49;34.83;;;16.38;;
59824;SDS011;45703;50.898;6.054;2022-12-10T15:52:17;38.78;;;16.23;;
59824;SDS011;45703;50.898;6.054;2022-12-10T15:54:46;29.15;;;13.65;;
59824;SDS011;45703;50.898;6.054;2022-12-10T15:57:23;36.65;;;16.60;;
59824;SDS011;45703;50.898;6.054;2022-12-10T15:59:55;36.45;;;14.93;;
59824;SDS011;45703;50.898;6.054;2022-12-10T16:02:42;32.33;;;14.60;;
59824;SDS011;45703;50.898;6.054;2022-12-10T16:05:32;39.30;;;16.63;;
59824;SDS011;45703;50.898;6.054;2022-12-10T16:10:43;31.77;;;14.85;;
59824;SDS011;45703;50.898;6.054;2022-12-10T16:13:14;38.15;;;15.73;;
59824;SDS011;45703;50.898;6.054;2022-12-10T16:15:44;37.08;;;15.77;;
59824;SDS011;45703;50.898;6.054;2022-12-10T16:18:13;33.33;;;14.82;;
59824;SDS011;45703;50.898;6.054;2022-12-10T16:20:38;33.08;;;14.27;;
59824;SDS011;45703;50.898;6.054;2022-12-10T16:23:04;33.67;;;14.65;;
59824;SDS011;45703;50.898;6.054;2022-12-10T16:25:31;34.80;;;13.63;;
59824;SDS011;45703;50.898;6.054;2022-12-10T16:27:57;29.35;;;13.32;;
59824;SDS011;45703;50.898;6.054;2022-12-10T16:30:34;37.83;;;15.85;;
59824;SDS011;45703;50.898;6.054;2022-12-10T16:33:01;33.95;;;14.40;;
59824;SDS011;45703;50.898;6.054;2022-12-10T16:35:27;33.63;;;14.88;;
59824;SDS011;45703;50.898;6.054;2022-12-10T16:37:53;33.95;;;14.15;;
59824;SDS011;45703;50.898;6.054;2022-12-10T16:40:22;31.73;;;13.68;;
59824;SDS011;45703;50.898;6.054;2022-12-10T16:42:48;31.75;;;13.70;;
59824;SDS011;45703;50.898;6.054;2022-12-10T16:45:26;34.80;;;15.52;;
59824;SDS011;45703;50.898;6.054;2022-12-10T16:47:53;35.72;;;14.77;;
59824;SDS011;45703;50.898;6.054;2022-12-10T16:50:19;37.45;;;16.17;;
59824;SDS011;45703;50.898;6.054;2022-12-10T16:52:46;34.28;;;15.15;;
59824;SDS011;45703;50.898;6.054;2022-12-10T16:55:16;36.95;;;15.30;;
59824;SDS011;45703;50.898;6.054;2022-12-10T16:57:43;31.30;;;13.32;;
59824;SDS011;45703;50.898;6.054;2022-12-10T17:00:11;36.65;;;14.75;;
59824;SDS011;45703;50.898;6.054;2022-12-10T17:02:39;38.10;;;15.23;;
59824;SDS011;45703;50.898;6.054;2022-12-10T17:05:10;33.65;;;15.98;;
59824;SDS011;45703;50.898;6.054;2022-12-10T17:07:40;35.47;;;15.60;;
59824;SDS011;45703;50.898;6.054;2022-12-10T17:10:06;32.78;;;14.85;;